createdAt,value
2022-08-17T00:00:35.296Z,66.7
2022-08-17T00:02:19.002Z,66.7
2022-08-17T00:04:02.710Z,66.8
2022-08-17T00:05:46.415Z,66.8
2022-08-17T00:07:30.107Z,66.7
2022-08-17T00:09:13.804Z,66.8
2022-08-17T00:10:57.516Z,66.8
2022-08-17T00:12:41.216Z,66.8
2022-08-17T00:14:24.920Z,66.8
2022-08-17T00:16:08.632Z,66.8
2022-08-17T00:17:52.322Z,66.8
2022-08-17T00:19:36.014Z,66.7
2022-08-17T00:21:19.712Z,66.8
2022-08-17T00:23:03.417Z,66.8
2022-08-17T00:24:47.132Z,66.8
2022-08-17T00:26:30.816Z,66.8
2022-08-17T00:28:14.509Z,66.8
2022-08-17T00:29:58.230Z,66.8
2022-08-17T00:31:41.931Z,66.8
2022-08-17T00:33:25.629Z,66.8
2022-08-17T00:35:09.322Z,66.9
2022-08-17T00:36:53.040Z,67
2022-08-17T00:38:36.731Z,67
2022-08-17T00:40:20.437Z,67
2022-08-17T00:42:04.119Z,67
2022-08-17T00:43:47.841Z,67
2022-08-17T00:45:31.532Z,67
2022-08-17T00:47:15.239Z,67.1
2022-08-17T00:48:58.942Z,67.2
2022-08-17T00:50:42.635Z,67.2
2022-08-17T00:52:26.335Z,67.2
2022-08-17T00:54:10.044Z,67.1
2022-08-17T00:55:53.746Z,67.2
2022-08-17T00:57:37.456Z,67.1
2022-08-17T00:59:21.149Z,67.2
2022-08-17T01:01:04.857Z,67.2
2022-08-17T01:02:48.561Z,67.2
2022-08-17T01:04:32.262Z,67.2
2022-08-17T01:06:15.957Z,67.2
2022-08-17T01:07:59.687Z,67.3
2022-08-17T01:09:43.379Z,67.1
2022-08-17T01:11:27.070Z,67.2
2022-08-17T01:13:10.783Z,67.1
2022-08-17T01:14:54.486Z,67
2022-08-17T01:16:38.176Z,67.1
2022-08-17T01:18:21.882Z,67.1
2022-08-17T01:20:05.617Z,67.1
2022-08-17T01:21:49.286Z,67.2
2022-08-17T01:23:32.978Z,67.3
2022-08-17T01:25:16.680Z,67.3
2022-08-17T01:27:00.394Z,67.3
2022-08-17T01:28:44.089Z,67.3
2022-08-17T01:30:27.793Z,67.3
2022-08-17T01:32:11.487Z,67.3
2022-08-17T01:33:55.195Z,67.3
2022-08-17T01:35:38.898Z,67.4
2022-08-17T01:37:22.595Z,67.5
2022-08-17T01:39:06.295Z,67.4
2022-08-17T01:40:50.014Z,67.3
2022-08-17T01:42:33.708Z,67.3
2022-08-17T01:44:17.401Z,67.3
2022-08-17T01:46:01.091Z,67.3
2022-08-17T01:47:44.795Z,67.3
2022-08-17T01:49:28.510Z,67.3
2022-08-17T01:51:12.205Z,67.3
2022-08-17T01:52:55.894Z,67.2
2022-08-17T01:54:39.616Z,67.2
2022-08-17T01:56:23.327Z,67.3
2022-08-17T01:58:07.020Z,67.2
2022-08-17T01:59:50.723Z,67.3
2022-08-17T02:01:34.425Z,67.2
2022-08-17T02:03:18.133Z,67.3
2022-08-17T02:05:01.820Z,67.3
2022-08-17T02:06:45.546Z,67.3
2022-08-17T02:08:29.248Z,67.3
2022-08-17T02:10:12.953Z,67.3
2022-08-17T02:11:56.636Z,67.2
2022-08-17T02:13:40.327Z,67.3
2022-08-17T02:15:24.055Z,67.3
2022-08-17T02:17:07.755Z,67.3
2022-08-17T02:18:51.467Z,67.3
2022-08-17T02:20:35.131Z,67.2
2022-08-17T02:22:18.841Z,67.3
2022-08-17T02:24:02.543Z,67.2
2022-08-17T02:25:46.263Z,67.2
2022-08-17T02:27:29.935Z,67.2
2022-08-17T02:29:13.652Z,67.2
2022-08-17T02:30:57.355Z,67.3
2022-08-17T02:32:41.099Z,67.3
2022-08-17T02:34:24.770Z,67.2
2022-08-17T02:36:08.460Z,67.1
2022-08-17T02:37:52.178Z,67.1
2022-08-17T02:39:35.876Z,67.1
2022-08-17T02:41:19.557Z,67.1
2022-08-17T02:43:03.277Z,67.2
2022-08-17T02:44:46.966Z,67.2
2022-08-17T02:46:30.673Z,67.2
2022-08-17T02:48:14.376Z,67.2
2022-08-17T02:49:58.073Z,67.1
2022-08-17T02:51:41.786Z,67.3
2022-08-17T02:53:25.479Z,67.1
2022-08-17T02:55:09.188Z,67.1
2022-08-17T02:56:52.885Z,67.2
2022-08-17T02:58:36.584Z,67.2
2022-08-17T03:00:20.277Z,67.1
2022-08-17T03:02:03.999Z,67.1
2022-08-17T03:03:47.693Z,67.1
2022-08-17T03:05:31.383Z,67.2
2022-08-17T03:07:15.088Z,67.3
2022-08-17T03:08:58.787Z,67.3
2022-08-17T03:10:42.486Z,67.2
2022-08-17T03:12:26.184Z,67.2
2022-08-17T03:14:09.888Z,67.2
2022-08-17T03:15:53.596Z,67.2
2022-08-17T03:17:37.306Z,67.2
2022-08-17T03:19:21.010Z,67.2
2022-08-17T03:21:04.709Z,67.2
2022-08-17T03:22:48.413Z,67.2
2022-08-17T03:24:32.116Z,67
2022-08-17T03:26:15.805Z,67
2022-08-17T03:27:59.510Z,67
2022-08-17T03:29:43.197Z,67
2022-08-17T03:31:26.921Z,67.1
2022-08-17T03:33:10.619Z,67.1
2022-08-17T03:34:54.366Z,67.2
2022-08-17T03:36:38.019Z,67.1
2022-08-17T03:38:21.722Z,67
2022-08-17T03:40:05.421Z,67.1
2022-08-17T03:41:49.120Z,67.3
2022-08-17T03:43:32.804Z,67.3
2022-08-17T03:45:16.522Z,67.3
2022-08-17T03:47:00.234Z,67.3
2022-08-17T03:48:43.907Z,67.3
2022-08-17T03:50:27.617Z,67.5
2022-08-17T03:52:11.325Z,67.4
2022-08-17T03:53:55.030Z,67.5
2022-08-17T03:57:22.437Z,67.4
2022-08-17T03:59:06.142Z,67.4
2022-08-17T04:00:49.828Z,67.5
2022-08-17T04:02:33.554Z,67.5
2022-08-17T04:04:17.239Z,67.5
2022-08-17T04:06:00.938Z,67.5
2022-08-17T04:07:44.639Z,67.6
2022-08-17T04:09:28.342Z,67.6
2022-08-17T04:11:12.029Z,67.5
2022-08-17T04:12:55.727Z,67.6
2022-08-17T04:14:39.441Z,67.6
2022-08-17T04:16:23.139Z,67.6
2022-08-17T04:18:06.844Z,67.5
2022-08-17T04:19:50.549Z,67.4
2022-08-17T04:21:34.265Z,67.4
2022-08-17T04:23:17.987Z,67.3
2022-08-17T04:25:01.660Z,67.4
2022-08-17T04:26:45.354Z,67.3
2022-08-17T04:28:29.056Z,67.2
2022-08-17T04:30:12.757Z,67.3
2022-08-17T04:31:56.469Z,67.3
2022-08-17T04:33:40.172Z,67.3
2022-08-17T04:35:23.859Z,67.4
2022-08-17T04:37:07.560Z,67.4
2022-08-17T04:38:51.264Z,67.4
2022-08-17T04:40:34.952Z,67.4
2022-08-17T04:42:18.660Z,67.4
2022-08-17T04:44:02.362Z,67.4
2022-08-17T04:45:46.086Z,67.3
2022-08-17T04:47:29.788Z,67.2
2022-08-17T04:49:13.477Z,67.3
2022-08-17T04:50:57.190Z,67.3
2022-08-17T04:52:40.885Z,67.3
2022-08-17T04:54:24.589Z,67.4
2022-08-17T04:56:08.268Z,67.5
2022-08-17T04:57:51.992Z,67.5
2022-08-17T04:59:35.681Z,67.4
2022-08-17T05:01:19.383Z,67.5
2022-08-17T05:03:03.089Z,67.5
2022-08-17T05:04:46.794Z,67.4
2022-08-17T05:06:30.506Z,67.5
2022-08-17T05:08:14.201Z,67.3
2022-08-17T05:09:57.910Z,67.3
2022-08-17T05:11:41.590Z,67.3
2022-08-17T05:13:25.291Z,67.1
2022-08-17T05:15:09.003Z,67
2022-08-17T05:16:52.714Z,67
2022-08-17T05:18:36.402Z,66.9
2022-08-17T05:20:20.106Z,66.6
2022-08-17T05:22:03.807Z,66.5
2022-08-17T05:23:47.514Z,66.5
2022-08-17T05:25:31.199Z,66.8
2022-08-17T05:27:14.902Z,67.1
2022-08-17T05:28:58.612Z,67.2
2022-08-17T05:30:42.311Z,67.5
2022-08-17T05:32:26.017Z,67.5
2022-08-17T05:34:09.710Z,67.8
2022-08-17T05:35:53.416Z,68.1
2022-08-17T05:37:37.115Z,68.4
2022-08-17T05:39:20.838Z,68.2
2022-08-17T05:41:04.530Z,67.9
2022-08-17T05:42:48.230Z,68
2022-08-17T05:44:31.936Z,67.5
2022-08-17T05:46:15.628Z,67.2
2022-08-17T05:47:59.329Z,66.8
2022-08-17T05:49:43.023Z,66.4
2022-08-17T05:51:26.733Z,65.9
2022-08-17T05:53:10.438Z,65.6
2022-08-17T05:54:54.139Z,65.2
2022-08-17T05:56:37.841Z,64.8
2022-08-17T05:58:21.552Z,64.6
2022-08-17T06:00:05.246Z,64.3
2022-08-17T06:01:48.942Z,63.9
2022-08-17T06:03:32.655Z,63.6
2022-08-17T06:05:16.339Z,63.4
2022-08-17T06:07:00.063Z,63.2
2022-08-17T06:08:43.742Z,62.9
2022-08-17T06:10:27.425Z,62.8
2022-08-17T06:12:11.141Z,62.7
2022-08-17T06:13:54.851Z,62.3
2022-08-17T06:15:38.539Z,62.2
2022-08-17T06:17:22.240Z,62
2022-08-17T06:19:05.939Z,62
2022-08-17T06:20:49.692Z,62.7
2022-08-17T06:22:33.336Z,63.6
2022-08-17T06:24:17.040Z,63.3
2022-08-17T06:26:00.774Z,63.2
2022-08-17T06:27:44.445Z,64.1
2022-08-17T06:29:28.150Z,64
2022-08-17T06:31:11.837Z,63.7
2022-08-17T06:32:55.574Z,64.1
2022-08-17T06:34:39.253Z,64
2022-08-17T06:36:22.945Z,64.2
2022-08-17T06:38:06.644Z,64.7
2022-08-17T06:39:50.364Z,64.6
2022-08-17T06:41:34.073Z,64.5
2022-08-17T06:43:17.752Z,64.9
2022-08-17T06:45:01.456Z,65
2022-08-17T06:46:45.159Z,64.8
2022-08-17T06:48:28.869Z,64.5
2022-08-17T06:50:12.569Z,64.3
2022-08-17T06:51:56.262Z,63.9
2022-08-17T06:53:39.972Z,63.7
2022-08-17T06:55:23.688Z,63.4
2022-08-17T06:57:07.369Z,63
2022-08-17T06:58:51.079Z,62.7
2022-08-17T07:00:34.792Z,62.6
2022-08-17T07:02:18.492Z,62.5
2022-08-17T07:04:02.213Z,62.3
2022-08-17T07:05:45.900Z,62.1
2022-08-17T07:07:29.608Z,62.1
2022-08-17T07:09:13.309Z,62
2022-08-17T07:10:57.005Z,62
2022-08-17T07:12:40.701Z,61.9
2022-08-17T07:14:24.418Z,61.9
2022-08-17T07:16:08.103Z,61.8
2022-08-17T07:17:51.816Z,61.6
2022-08-17T07:19:35.517Z,61.6
2022-08-17T07:21:19.202Z,61.5
2022-08-17T07:23:02.925Z,61.4
2022-08-17T07:24:46.619Z,61.3
2022-08-17T07:26:30.314Z,61.2
2022-08-17T07:28:14.032Z,61.1
2022-08-17T07:29:57.727Z,61.1
2022-08-17T07:31:41.428Z,61.1
2022-08-17T07:33:25.132Z,61.1
2022-08-17T07:35:08.839Z,61.1
2022-08-17T07:36:52.555Z,61
2022-08-17T07:38:36.244Z,60.9
2022-08-17T07:40:19.942Z,60.9
2022-08-17T07:42:03.644Z,60.8
2022-08-17T07:43:47.339Z,60.8
2022-08-17T07:45:31.052Z,60.8
2022-08-17T07:47:14.745Z,60.7
2022-08-17T07:48:58.453Z,60.6
2022-08-17T07:50:42.170Z,60.6
2022-08-17T07:52:25.877Z,60.5
2022-08-17T07:54:09.584Z,60.5
2022-08-17T07:55:53.272Z,60.6
2022-08-17T07:57:36.966Z,60.6
2022-08-17T07:59:20.688Z,60.6
2022-08-17T08:01:04.380Z,60.6
2022-08-17T08:02:48.107Z,60.7
2022-08-17T08:04:31.772Z,60.6
2022-08-17T08:06:15.504Z,60.5
2022-08-17T08:07:59.207Z,60.5
2022-08-17T08:09:42.906Z,60.4
2022-08-17T08:11:26.603Z,60.3
2022-08-17T08:13:10.306Z,60.4
2022-08-17T08:14:54.045Z,60.4
2022-08-17T08:16:37.824Z,60.4
2022-08-17T08:18:21.418Z,60.5
2022-08-17T08:20:05.111Z,60.5
2022-08-17T08:21:48.842Z,60.5
2022-08-17T08:23:32.522Z,60.6
2022-08-17T08:25:16.237Z,60.6
2022-08-17T08:26:59.937Z,60.6
2022-08-17T08:33:54.760Z,60.7
2022-08-17T08:35:38.469Z,60.7
2022-08-17T08:37:22.185Z,60.8
2022-08-17T08:39:12.914Z,60.8
2022-08-17T08:40:49.570Z,60.8
2022-08-17T08:42:33.274Z,60.7
2022-08-17T08:44:16.978Z,60.6
2022-08-17T08:46:00.684Z,60.6
2022-08-17T08:47:44.375Z,60.6
2022-08-17T08:49:28.089Z,60.4
2022-08-17T08:51:11.800Z,60.3
2022-08-17T08:52:55.506Z,60.3
2022-08-17T08:54:39.187Z,60.4
2022-08-17T08:56:22.874Z,60.7
2022-08-17T08:58:06.580Z,61
2022-08-17T08:59:50.298Z,61.5
2022-08-17T09:01:33.991Z,61.8
2022-08-17T09:03:17.706Z,61.8
2022-08-17T09:05:01.401Z,61.6
2022-08-17T09:06:45.097Z,61.5
2022-08-17T09:08:28.797Z,61.5
2022-08-17T09:10:12.495Z,61.4
2022-08-17T09:11:56.205Z,61.3
2022-08-17T09:13:39.902Z,61.3
2022-08-17T09:15:23.595Z,61.3
2022-08-17T09:17:07.316Z,61.3
2022-08-17T09:18:51.011Z,61.3
2022-08-17T09:20:34.730Z,61.4
2022-08-17T09:22:18.415Z,61.5
2022-08-17T09:24:02.103Z,61.5
2022-08-17T09:25:45.838Z,61.5
2022-08-17T09:27:29.512Z,61.4
2022-08-17T09:29:13.211Z,61.5
2022-08-17T09:30:56.918Z,61.5
2022-08-17T09:32:40.627Z,61.6
2022-08-17T09:34:24.331Z,61.5
2022-08-17T09:36:08.265Z,61.5
2022-08-17T09:37:51.706Z,61.5
2022-08-17T09:39:35.424Z,61.4
2022-08-17T09:41:19.131Z,61.5
2022-08-17T09:43:02.820Z,61.4
2022-08-17T09:46:30.246Z,61.3
2022-08-17T09:48:13.932Z,61.3
2022-08-17T09:49:57.617Z,61.2
2022-08-17T09:51:41.330Z,61.1
2022-08-17T09:53:25.046Z,61.1
2022-08-17T09:55:08.740Z,60.9
2022-08-17T09:56:52.436Z,60.8
2022-08-17T09:58:36.135Z,60.5
2022-08-17T10:00:19.837Z,60.2
2022-08-17T10:02:03.550Z,60
2022-08-17T10:03:47.243Z,60
2022-08-17T10:05:30.946Z,59.9
2022-08-17T10:07:14.639Z,59.8
2022-08-17T10:08:58.356Z,59.8
2022-08-17T10:10:42.036Z,59.8
2022-08-17T10:12:25.737Z,59.7
2022-08-17T10:14:09.445Z,59.7
2022-08-17T10:15:53.157Z,59.6
2022-08-17T10:17:36.852Z,59.6
2022-08-17T10:19:20.551Z,59.6
2022-08-17T10:21:04.276Z,59.6
2022-08-17T10:22:47.960Z,59.6
2022-08-17T10:24:31.651Z,59.7
2022-08-17T10:26:15.354Z,59.8
2022-08-17T10:27:59.065Z,59.8
2022-08-17T10:29:42.761Z,59.8
2022-08-17T10:31:26.453Z,60
2022-08-17T10:33:10.156Z,60
2022-08-17T10:34:53.870Z,60
2022-08-17T10:36:37.560Z,60.1
2022-08-17T10:38:21.259Z,60.1
2022-08-17T10:40:04.978Z,60.2
2022-08-17T10:41:48.659Z,60.3
2022-08-17T10:43:32.382Z,60.4
2022-08-17T10:45:16.071Z,60.5
2022-08-17T10:46:59.769Z,60.5
2022-08-17T10:48:43.474Z,60.6
2022-08-17T10:50:27.173Z,60.6
2022-08-17T10:52:10.893Z,60.6
2022-08-17T10:53:54.600Z,60.7
2022-08-17T10:55:38.314Z,60.8
2022-08-17T10:57:21.990Z,60.8
2022-08-17T10:59:05.680Z,61
2022-08-17T11:00:49.397Z,61.1
2022-08-17T11:02:33.104Z,61.3
2022-08-17T11:04:16.805Z,61.3
2022-08-17T11:06:00.498Z,61.1
2022-08-17T11:07:44.204Z,61.1
2022-08-17T11:09:27.911Z,61.1
2022-08-17T11:11:11.620Z,61.2
2022-08-17T11:12:55.311Z,61.3
2022-08-17T11:14:39.015Z,61.2
2022-08-17T11:16:22.722Z,61.2
2022-08-17T11:18:06.421Z,61.1
2022-08-17T11:19:50.138Z,61
2022-08-17T11:21:33.821Z,60.8
2022-08-17T11:23:17.517Z,60.7
2022-08-17T11:25:01.237Z,60.7
2022-08-17T11:26:44.919Z,60.6
2022-08-17T11:28:28.627Z,60.7
2022-08-17T11:30:12.312Z,60.6
2022-08-17T11:31:56.057Z,60.7
2022-08-17T11:33:39.724Z,60.7
2022-08-17T11:35:23.444Z,60.8
2022-08-17T11:37:07.128Z,60.8
2022-08-17T11:38:50.833Z,60.9
2022-08-17T11:40:34.513Z,60.9
2022-08-17T11:42:18.243Z,60.9
2022-08-17T11:45:45.635Z,61.4
2022-08-17T11:47:29.330Z,61.4
2022-08-17T11:49:13.039Z,61.6
2022-08-17T11:50:56.750Z,61.6
2022-08-17T11:52:40.450Z,61.8
2022-08-17T11:54:24.144Z,62.1
2022-08-17T11:56:07.857Z,62.3
2022-08-17T11:57:51.552Z,62.2
2022-08-17T12:01:18.945Z,61.6
2022-08-17T12:03:02.661Z,61.4
2022-08-17T12:04:46.385Z,61.1
2022-08-17T12:06:30.057Z,60.9
2022-08-17T12:08:13.759Z,60.7
2022-08-17T12:09:57.458Z,60.5
2022-08-17T12:11:41.170Z,60.8
2022-08-17T12:13:24.857Z,60.3
2022-08-17T12:15:08.581Z,60.4
2022-08-17T12:16:52.264Z,60.2
2022-08-17T12:18:35.973Z,59.9
2022-08-17T12:20:19.664Z,59.6
2022-08-17T12:22:03.380Z,59.2
2022-08-17T12:23:47.098Z,58.9
2022-08-17T12:25:30.804Z,58.7
2022-08-17T12:27:14.480Z,58.3
2022-08-17T12:28:58.193Z,58
2022-08-17T12:30:41.862Z,58.1
2022-08-17T12:32:25.588Z,58.2
2022-08-17T12:34:09.275Z,58.2
2022-08-17T12:35:52.972Z,58
2022-08-17T12:37:36.670Z,58.2
2022-08-17T12:39:20.377Z,58.1
2022-08-17T12:41:04.079Z,57.8
2022-08-17T12:42:47.790Z,57.8
2022-08-17T12:44:31.479Z,57.7
2022-08-17T12:46:15.184Z,57.7
2022-08-17T12:47:58.886Z,57.6
2022-08-17T12:49:42.576Z,57.5
2022-08-17T12:51:26.284Z,57.5
2022-08-17T12:53:09.998Z,57.3
2022-08-17T12:54:53.700Z,57
2022-08-17T12:56:37.384Z,56.7
2022-08-17T12:58:21.109Z,56.5
2022-08-17T13:00:04.810Z,56.4
2022-08-17T13:01:48.498Z,56.3
2022-08-17T13:03:32.216Z,56.1
2022-08-17T13:05:15.937Z,56.2
2022-08-17T13:06:59.605Z,56.2
2022-08-17T13:08:43.310Z,56
2022-08-17T13:10:27.025Z,55.8
2022-08-17T13:12:10.709Z,55.6
2022-08-17T13:13:54.410Z,55.7
2022-08-17T13:15:38.125Z,55.6
2022-08-17T13:17:21.822Z,55.5
2022-08-17T13:19:05.540Z,55.5
2022-08-17T13:20:49.218Z,55.4
2022-08-17T13:22:32.930Z,55.5
2022-08-17T13:24:16.682Z,55.6
2022-08-17T13:26:00.344Z,55.5
2022-08-17T13:27:44.034Z,55.5
2022-08-17T13:29:27.739Z,55.4
2022-08-17T13:31:11.445Z,55.3
2022-08-17T13:32:55.151Z,55.4
2022-08-17T13:34:38.829Z,55.4
2022-08-17T13:36:22.536Z,55.5
2022-08-17T13:38:06.244Z,55.6
2022-08-17T13:39:49.966Z,55.6
2022-08-17T13:41:33.639Z,55.6
2022-08-17T13:43:17.343Z,55.6
2022-08-17T13:45:01.037Z,55.7
2022-08-17T13:46:44.752Z,55.6
2022-08-17T13:48:28.444Z,55.5
2022-08-17T13:50:12.141Z,55.5
2022-08-17T13:51:55.853Z,55.6
2022-08-17T13:53:39.556Z,55.7
2022-08-17T13:55:23.245Z,55.7
2022-08-17T13:57:06.951Z,55.6
2022-08-17T13:58:50.646Z,55.5
2022-08-17T14:00:34.344Z,55.5
2022-08-17T14:02:18.060Z,55.4
2022-08-17T14:04:01.760Z,55.3
2022-08-17T14:05:45.452Z,55.3
2022-08-17T14:07:29.152Z,55.3
2022-08-17T14:09:12.877Z,55.2
2022-08-17T14:10:56.579Z,55.1
2022-08-17T14:12:40.279Z,55.2
2022-08-17T14:14:23.970Z,55.3
2022-08-17T14:16:07.675Z,55.1
2022-08-17T14:17:51.377Z,54.9
2022-08-17T14:19:35.087Z,54.8
2022-08-17T14:21:18.781Z,54.8
2022-08-17T14:23:02.468Z,54.8
2022-08-17T14:24:46.185Z,54.8
2022-08-17T14:26:29.885Z,54.7
2022-08-17T14:28:13.580Z,54.7
2022-08-17T14:29:57.270Z,54.7
2022-08-17T14:31:40.982Z,54.8
2022-08-17T14:33:24.689Z,54.6
2022-08-17T14:35:08.373Z,54.6
2022-08-17T14:36:52.082Z,54.6
2022-08-17T14:38:35.793Z,54.7
2022-08-17T14:40:19.512Z,54.6
2022-08-17T14:42:03.188Z,54.6
2022-08-17T14:43:46.885Z,54.5
2022-08-17T14:45:30.608Z,54.5
2022-08-17T14:47:14.299Z,54.5
2022-08-17T14:48:58.005Z,54.5
2022-08-17T14:50:41.731Z,54.6
2022-08-17T14:52:25.469Z,54.6
2022-08-17T14:54:09.111Z,54.6
2022-08-17T14:55:52.814Z,54.6
2022-08-17T14:57:36.508Z,54.4
2022-08-17T14:59:20.218Z,54.3
2022-08-17T15:01:03.930Z,54.3
2022-08-17T15:02:47.621Z,54.3
2022-08-17T15:04:31.313Z,54.1
2022-08-17T15:06:15.026Z,54
2022-08-17T15:07:58.740Z,54
2022-08-17T15:09:42.419Z,54.1
2022-08-17T15:11:26.145Z,54.1
2022-08-17T15:13:09.837Z,54
2022-08-17T15:14:53.534Z,54
2022-08-17T15:16:37.241Z,54
2022-08-17T15:18:20.937Z,53.9
2022-08-17T15:20:04.648Z,53.9
2022-08-17T15:21:48.353Z,53.9
2022-08-17T15:23:32.050Z,54
2022-08-17T15:25:15.760Z,54
2022-08-17T15:26:59.459Z,54
2022-08-17T15:28:43.162Z,53.9
2022-08-17T15:30:26.875Z,54
2022-08-17T15:32:10.570Z,54
2022-08-17T15:33:54.323Z,53.7
2022-08-17T15:35:37.957Z,53.7
2022-08-17T15:37:21.662Z,53.8
2022-08-17T15:39:05.364Z,53.7
2022-08-17T15:40:49.069Z,53.6
2022-08-17T15:42:32.877Z,53.6
2022-08-17T15:44:16.462Z,53.6
2022-08-17T15:46:00.162Z,53.6
2022-08-17T15:47:43.862Z,53.6
2022-08-17T15:49:27.562Z,53.6
2022-08-17T15:51:11.273Z,53.6
2022-08-17T15:52:54.966Z,53.6
2022-08-17T15:54:38.678Z,53.6
2022-08-17T15:56:22.370Z,53.6
2022-08-17T15:58:06.086Z,53.7
2022-08-17T15:59:49.782Z,53.6
2022-08-17T16:01:33.495Z,53.7
2022-08-17T16:03:17.179Z,53.8
2022-08-17T16:05:00.879Z,53.8
2022-08-17T16:06:44.598Z,53.9
2022-08-17T16:08:28.311Z,54
2022-08-17T16:10:11.999Z,54.2
2022-08-17T16:11:55.692Z,54.2
2022-08-17T16:13:39.404Z,54.3
2022-08-17T16:15:23.104Z,54.4
2022-08-17T16:17:06.785Z,54.5
2022-08-17T16:18:50.490Z,54.6
2022-08-17T16:20:34.243Z,54.7
2022-08-17T16:22:17.909Z,54.8
2022-08-17T16:24:01.617Z,54.8
2022-08-17T16:25:45.304Z,54.9
2022-08-17T16:27:28.994Z,55
2022-08-17T16:29:12.698Z,55.1
2022-08-17T16:30:56.405Z,55.1
2022-08-17T16:32:40.161Z,55.4
2022-08-17T16:34:23.798Z,55.4
2022-08-17T16:36:07.524Z,55.5
2022-08-17T16:37:51.197Z,55.4
2022-08-17T16:39:34.886Z,55.5
2022-08-17T16:41:18.707Z,55.6
2022-08-17T16:43:02.313Z,55.6
2022-08-17T16:44:45.996Z,55.7
2022-08-17T16:46:29.698Z,55.8
2022-08-17T16:48:13.407Z,55.8
2022-08-17T16:49:57.231Z,55.9
2022-08-17T16:51:40.799Z,56
2022-08-17T16:53:24.515Z,56
2022-08-17T16:55:08.211Z,56.1
2022-08-17T16:56:51.917Z,56.2
2022-08-17T16:58:35.655Z,56.3
2022-08-17T17:00:19.310Z,56.4
2022-08-17T17:02:03.014Z,56.4
2022-08-17T17:03:46.711Z,56.5
2022-08-17T17:05:30.421Z,56.7
2022-08-17T17:07:14.146Z,56.8
2022-08-17T17:08:57.827Z,56.8
2022-08-17T17:10:41.548Z,56.9
2022-08-17T17:12:25.236Z,57.1
2022-08-17T17:14:08.944Z,57.2
2022-08-17T17:15:52.651Z,57.4
2022-08-17T17:17:36.351Z,57.5
2022-08-17T17:19:20.048Z,57.6
2022-08-17T17:21:03.763Z,57.8
2022-08-17T17:22:47.462Z,57.9
2022-08-17T17:24:31.156Z,57.9
2022-08-17T17:26:14.858Z,57.9
2022-08-17T17:27:58.578Z,57.9
2022-08-17T17:29:42.271Z,57.9
2022-08-17T17:31:25.965Z,57.9
2022-08-17T17:33:09.711Z,58
2022-08-17T17:34:53.371Z,58
2022-08-17T17:36:37.079Z,58
2022-08-17T17:38:20.754Z,57.9
2022-08-17T17:40:04.500Z,58.1
2022-08-17T17:41:48.219Z,58.3
2022-08-17T17:43:31.878Z,58
2022-08-17T17:45:15.565Z,57.9
2022-08-17T17:46:59.301Z,58
2022-08-17T17:48:42.991Z,58
2022-08-17T17:50:26.687Z,58
2022-08-17T17:52:10.374Z,58
2022-08-17T17:53:54.082Z,58.1
2022-08-17T17:55:37.833Z,58.1
2022-08-17T17:57:21.500Z,58.1
2022-08-17T17:59:05.206Z,58.2
2022-08-17T18:00:48.912Z,58.4
2022-08-17T18:02:32.616Z,58.3
2022-08-17T18:04:16.315Z,58.4
2022-08-17T18:06:00.067Z,58.5
2022-08-17T18:07:43.716Z,58.7
2022-08-17T18:09:27.440Z,58.5
2022-08-17T18:11:11.122Z,58.6
2022-08-17T18:12:54.826Z,58.6
2022-08-17T18:14:38.528Z,58.6
2022-08-17T18:16:22.252Z,58.6
2022-08-17T18:18:05.930Z,59.1
2022-08-17T18:19:49.643Z,58.8
2022-08-17T18:21:33.348Z,58.8
2022-08-17T18:23:17.038Z,58.9
2022-08-17T18:25:00.750Z,58.9
2022-08-17T18:26:44.435Z,59
2022-08-17T18:28:28.134Z,59.1
2022-08-17T18:30:11.837Z,59.1
2022-08-17T18:31:55.554Z,59.2
2022-08-17T18:33:39.247Z,59.3
2022-08-17T18:35:22.941Z,59.3
2022-08-17T18:37:06.663Z,59.4
2022-08-17T18:38:50.333Z,59.4
2022-08-17T18:40:34.064Z,59.5
2022-08-17T18:42:17.764Z,59.5
2022-08-17T18:44:01.466Z,59.6
2022-08-17T18:45:45.162Z,59.7
2022-08-17T18:47:28.845Z,59.6
2022-08-17T18:49:12.562Z,59.6
2022-08-17T18:50:56.265Z,59.6
2022-08-17T18:52:39.959Z,59.6
2022-08-17T18:54:23.659Z,59.7
2022-08-17T18:56:07.371Z,59.7
2022-08-17T18:57:51.076Z,59.8
2022-08-17T18:59:34.759Z,59.9
2022-08-17T19:01:18.475Z,59.9
2022-08-17T19:03:02.182Z,60.1
2022-08-17T19:04:45.875Z,60.1
2022-08-17T19:06:29.579Z,60.2
2022-08-17T19:08:13.284Z,60.2
2022-08-17T19:09:56.984Z,60.3
2022-08-17T19:11:40.699Z,60.4
2022-08-17T19:13:24.393Z,60.5
2022-08-17T19:15:08.107Z,60.7
2022-08-17T19:16:51.798Z,60.8
2022-08-17T19:18:35.498Z,60.9
2022-08-17T19:20:19.199Z,61.2
2022-08-17T19:22:02.908Z,61.3
2022-08-17T19:23:46.623Z,61.2
2022-08-17T19:25:30.321Z,61.6
2022-08-17T19:27:14.025Z,61.6
2022-08-17T19:28:57.720Z,61.6
2022-08-17T19:30:41.421Z,61.6
2022-08-17T19:32:25.144Z,61.6
2022-08-17T19:34:08.842Z,61.7
2022-08-17T19:35:52.531Z,61.7
2022-08-17T19:37:36.255Z,61.8
2022-08-17T19:39:19.945Z,61.8
2022-08-17T19:41:03.633Z,61.8
2022-08-17T19:42:47.343Z,61.8
2022-08-17T19:44:31.057Z,61.8
2022-08-17T19:47:58.446Z,61.9
2022-08-17T19:49:42.142Z,62
2022-08-17T19:51:25.868Z,62
2022-08-17T19:53:09.541Z,62
2022-08-17T19:54:53.265Z,62
2022-08-17T19:56:36.962Z,61.9
2022-08-17T19:58:22.747Z,61.9
2022-08-17T20:00:04.360Z,61.2
2022-08-17T20:01:48.082Z,61.2
2022-08-17T20:03:31.768Z,61.4
2022-08-17T20:05:15.469Z,61.8
2022-08-17T20:06:59.182Z,62.2
2022-08-17T20:08:42.880Z,62.4
2022-08-17T20:10:26.611Z,62.7
2022-08-17T20:12:10.285Z,62.8
2022-08-17T20:13:53.977Z,63.1
2022-08-17T20:15:37.686Z,63.3
2022-08-17T20:17:21.389Z,63.5
2022-08-17T20:19:05.117Z,63.7
2022-08-17T20:20:48.799Z,64
2022-08-17T20:22:32.521Z,64.2
2022-08-17T20:24:16.206Z,64.3
2022-08-17T20:25:59.928Z,64.2
2022-08-17T20:27:43.623Z,64.4
2022-08-17T20:29:27.327Z,64.4
2022-08-17T20:31:11.021Z,64.6
2022-08-17T20:32:54.727Z,64.7
2022-08-17T20:34:38.437Z,64.8
2022-08-17T20:36:22.135Z,64.7
2022-08-17T20:38:05.843Z,64.7
2022-08-17T20:39:49.526Z,64.8
2022-08-17T20:41:33.229Z,64.8
2022-08-17T20:43:16.949Z,64.7
2022-08-17T20:45:00.647Z,64.7
2022-08-17T20:46:44.345Z,64.8
2022-08-17T20:48:28.055Z,64.9
2022-08-17T20:50:11.753Z,65
2022-08-17T20:51:55.476Z,64.9
2022-08-17T20:53:39.149Z,64.8
2022-08-17T20:55:22.853Z,65
2022-08-17T20:57:06.554Z,65
2022-08-17T20:58:50.275Z,65
2022-08-17T21:00:33.967Z,64.9
2022-08-17T21:02:17.671Z,65
2022-08-17T21:04:01.386Z,65.1
2022-08-17T21:05:45.088Z,65.1
2022-08-17T21:07:28.761Z,65.2
2022-08-17T21:09:12.491Z,65.4
2022-08-17T21:10:56.197Z,65.5
2022-08-17T21:12:39.874Z,65.5
2022-08-17T21:14:23.591Z,65.7
2022-08-17T21:16:07.287Z,65.6
2022-08-17T21:17:50.979Z,65.5
2022-08-17T21:19:34.690Z,65.8
2022-08-17T21:21:18.420Z,65.9
2022-08-17T21:23:02.096Z,66
2022-08-17T21:24:45.783Z,66.3
2022-08-17T21:26:29.508Z,66.7
2022-08-17T21:28:13.207Z,66.5
2022-08-17T21:29:56.892Z,66.3
2022-08-17T21:31:40.595Z,66.2
2022-08-17T21:33:24.298Z,66.1
2022-08-17T21:35:07.995Z,66.1
2022-08-17T21:36:51.688Z,66.4
2022-08-17T21:38:35.394Z,66.3
2022-08-17T21:40:19.107Z,66.3
2022-08-17T21:42:02.807Z,66.7
2022-08-17T21:43:46.487Z,66.7
2022-08-17T21:45:30.194Z,66.9
2022-08-17T21:47:13.890Z,67.5
2022-08-17T21:48:57.605Z,66.8
2022-08-17T21:50:41.291Z,66.6
2022-08-17T21:52:24.987Z,66.6
2022-08-17T21:54:08.693Z,66.5
2022-08-17T21:55:52.402Z,66.7
2022-08-17T21:57:36.120Z,66.8
2022-08-17T21:59:19.791Z,67.1
2022-08-17T22:01:03.491Z,67.1
2022-08-17T22:02:47.197Z,67.3
2022-08-17T22:04:30.878Z,67.1
2022-08-17T22:06:14.603Z,66.7
2022-08-17T22:07:58.288Z,66.6
2022-08-17T22:09:41.989Z,66.5
2022-08-17T22:11:25.674Z,66
2022-08-17T22:13:09.384Z,65.6
2022-08-17T22:14:53.083Z,65.3
2022-08-17T22:16:36.802Z,65.1
2022-08-17T22:18:20.496Z,65.1
2022-08-17T22:20:04.193Z,64.8
2022-08-17T22:21:47.888Z,64.7
2022-08-17T22:23:31.654Z,64.7
2022-08-17T22:25:15.295Z,64.7
2022-08-17T22:26:58.996Z,64.7
2022-08-17T22:28:42.690Z,64.7
2022-08-17T22:30:26.397Z,64.9
2022-08-17T22:32:10.093Z,65
2022-08-17T22:33:53.796Z,65.1
2022-08-17T22:35:37.497Z,65.3
2022-08-17T22:37:21.199Z,65.3
2022-08-17T22:39:04.902Z,65.4
2022-08-17T22:40:48.584Z,65.5
2022-08-17T22:42:32.287Z,65.8
2022-08-17T22:44:16.004Z,65.8
2022-08-17T22:45:59.700Z,65.8
2022-08-17T22:47:43.405Z,66
2022-08-17T22:49:27.095Z,66.2
2022-08-17T22:51:10.798Z,66.1
2022-08-17T22:52:54.494Z,66.3
2022-08-17T22:54:38.202Z,66.5
2022-08-17T22:56:21.906Z,66.8
2022-08-17T22:58:05.600Z,67
2022-08-17T22:59:49.305Z,66.9
2022-08-17T23:01:33.003Z,67.1
2022-08-17T23:03:16.719Z,66.8
2022-08-17T23:05:00.428Z,66.8
2022-08-17T23:06:44.118Z,67.9
2022-08-17T23:08:36.226Z,68
2022-08-17T23:10:11.520Z,68.3
2022-08-17T23:11:55.223Z,68
2022-08-17T23:13:38.926Z,68.3
2022-08-17T23:15:22.627Z,67.9
2022-08-17T23:17:06.329Z,68.8
2022-08-17T23:18:50.040Z,69.2
2022-08-17T23:20:33.727Z,68.9
2022-08-17T23:22:17.417Z,69.2